sensor_id;sensor_type;location;lat;lon;timestamp;P1;durP1;ratioP1;P2;durP2;ratioP2
7195;SDS011;3639;51.308;5.624;2022-08-03T00:01:57;2.23;;;1.80;;
7195;SDS011;3639;51.308;5.624;2022-08-03T00:04:23;2.30;;;1.73;;
7195;SDS011;3639;51.308;5.624;2022-08-03T00:06:50;2.27;;;1.80;;
7195;SDS011;3639;51.308;5.624;2022-08-03T00:09:15;3.10;;;1.90;;
7195;SDS011;3639;51.308;5.624;2022-08-03T00:11:43;2.03;;;1.50;;
7195;SDS011;3639;51.308;5.624;2022-08-03T00:14:09;3.57;;;2.03;;
7195;SDS011;3639;51.308;5.624;2022-08-03T00:16:35;2.57;;;1.77;;
7195;SDS011;3639;51.308;5.624;2022-08-03T00:19:01;3.60;;;2.00;;
7195;SDS011;3639;51.308;5.624;2022-08-03T00:21:28;6.13;;;1.83;;
7195;SDS011;3639;51.308;5.624;2022-08-03T00:23:53;1.90;;;1.40;;
7195;SDS011;3639;51.308;5.624;2022-08-03T00:26:20;4.30;;;1.93;;
7195;SDS011;3639;51.308;5.624;2022-08-03T00:28:46;3.57;;;2.00;;
7195;SDS011;3639;51.308;5.624;2022-08-03T00:31:12;3.20;;;1.90;;
7195;SDS011;3639;51.308;5.624;2022-08-03T00:33:38;2.20;;;1.87;;
7195;SDS011;3639;51.308;5.624;2022-08-03T00:36:04;3.47;;;1.90;;
7195;SDS011;3639;51.308;5.624;2022-08-03T00:38:31;4.20;;;1.90;;
7195;SDS011;3639;51.308;5.624;2022-08-03T00:40:57;3.47;;;2.10;;
7195;SDS011;3639;51.308;5.624;2022-08-03T00:43:25;3.93;;;2.10;;
7195;SDS011;3639;51.308;5.624;2022-08-03T00:45:51;2.70;;;1.83;;
7195;SDS011;3639;51.308;5.624;2022-08-03T00:48:19;3.30;;;1.93;;
7195;SDS011;3639;51.308;5.624;2022-08-03T00:50:45;2.73;;;1.93;;
7195;SDS011;3639;51.308;5.624;2022-08-03T00:53:12;4.67;;;1.80;;
7195;SDS011;3639;51.308;5.624;2022-08-03T00:55:39;2.17;;;1.77;;
7195;SDS011;3639;51.308;5.624;2022-08-03T00:58:06;3.90;;;2.10;;
7195;SDS011;3639;51.308;5.624;2022-08-03T01:00:33;2.23;;;2.00;;
7195;SDS011;3639;51.308;5.624;2022-08-03T01:03:02;3.93;;;2.07;;
7195;SDS011;3639;51.308;5.624;2022-08-03T01:05:34;2.97;;;2.10;;
7195;SDS011;3639;51.308;5.624;2022-08-03T01:10:53;3.43;;;1.80;;
7195;SDS011;3639;51.308;5.624;2022-08-03T01:13:53;3.23;;;2.10;;
7195;SDS011;3639;51.308;5.624;2022-08-03T01:21:58;1.93;;;1.63;;
7195;SDS011;3639;51.308;5.624;2022-08-03T01:27:22;3.03;;;1.93;;
7195;SDS011;3639;51.308;5.624;2022-08-03T01:38:09;2.37;;;2.17;;
7195;SDS011;3639;51.308;5.624;2022-08-03T01:40:38;2.33;;;1.80;;
7195;SDS011;3639;51.308;5.624;2022-08-03T01:43:06;2.20;;;1.80;;
7195;SDS011;3639;51.308;5.624;2022-08-03T01:45:35;2.80;;;2.20;;
7195;SDS011;3639;51.308;5.624;2022-08-03T01:48:02;4.40;;;2.30;;
7195;SDS011;3639;51.308;5.624;2022-08-03T01:50:30;2.97;;;2.00;;
7195;SDS011;3639;51.308;5.624;2022-08-03T01:52:58;3.63;;;2.13;;
7195;SDS011;3639;51.308;5.624;2022-08-03T01:55:25;4.70;;;2.17;;
7195;SDS011;3639;51.308;5.624;2022-08-03T01:57:52;3.73;;;2.27;;
7195;SDS011;3639;51.308;5.624;2022-08-03T02:00:20;2.23;;;2.00;;
7195;SDS011;3639;51.308;5.624;2022-08-03T02:02:48;4.27;;;2.10;;
7195;SDS011;3639;51.308;5.624;2022-08-03T02:05:14;3.80;;;2.20;;
7195;SDS011;3639;51.308;5.624;2022-08-03T02:07:43;3.37;;;1.90;;
7195;SDS011;3639;51.308;5.624;2022-08-03T02:10:12;2.13;;;1.90;;
7195;SDS011;3639;51.308;5.624;2022-08-03T02:12:41;3.13;;;2.50;;
7195;SDS011;3639;51.308;5.624;2022-08-03T02:15:10;6.17;;;2.30;;
7195;SDS011;3639;51.308;5.624;2022-08-03T02:17:39;2.03;;;1.80;;
7195;SDS011;3639;51.308;5.624;2022-08-03T02:20:07;5.60;;;2.20;;
7195;SDS011;3639;51.308;5.624;2022-08-03T02:22:38;2.67;;;1.77;;
7195;SDS011;3639;51.308;5.624;2022-08-03T02:25:06;3.03;;;2.10;;
7195;SDS011;3639;51.308;5.624;2022-08-03T02:27:33;3.97;;;2.30;;
7195;SDS011;3639;51.308;5.624;2022-08-03T02:30:03;3.13;;;2.30;;
7195;SDS011;3639;51.308;5.624;2022-08-03T02:32:33;6.20;;;2.00;;
7195;SDS011;3639;51.308;5.624;2022-08-03T02:35:02;2.43;;;1.90;;
7195;SDS011;3639;51.308;5.624;2022-08-03T02:37:31;3.47;;;2.00;;
7195;SDS011;3639;51.308;5.624;2022-08-03T02:40:03;4.10;;;2.10;;
7195;SDS011;3639;51.308;5.624;2022-08-03T02:42:32;3.70;;;2.47;;
7195;SDS011;3639;51.308;5.624;2022-08-03T02:45:00;3.70;;;2.03;;
7195;SDS011;3639;51.308;5.624;2022-08-03T02:47:29;2.90;;;2.33;;
7195;SDS011;3639;51.308;5.624;2022-08-03T02:49:57;6.03;;;2.07;;
7195;SDS011;3639;51.308;5.624;2022-08-03T02:52:27;3.30;;;2.20;;
7195;SDS011;3639;51.308;5.624;2022-08-03T02:54:55;2.67;;;2.30;;
7195;SDS011;3639;51.308;5.624;2022-08-03T02:57:24;4.80;;;2.67;;
7195;SDS011;3639;51.308;5.624;2022-08-03T02:59:53;3.67;;;2.47;;
7195;SDS011;3639;51.308;5.624;2022-08-03T03:02:20;4.03;;;2.30;;
7195;SDS011;3639;51.308;5.624;2022-08-03T03:04:49;3.37;;;2.73;;
7195;SDS011;3639;51.308;5.624;2022-08-03T03:07:16;4.53;;;2.57;;
7195;SDS011;3639;51.308;5.624;2022-08-03T03:09:43;6.20;;;3.10;;
7195;SDS011;3639;51.308;5.624;2022-08-03T03:12:10;4.50;;;2.63;;
7195;SDS011;3639;51.308;5.624;2022-08-03T03:14:37;3.70;;;2.40;;
7195;SDS011;3639;51.308;5.624;2022-08-03T03:17:07;4.23;;;2.50;;
7195;SDS011;3639;51.308;5.624;2022-08-03T03:19:35;3.67;;;2.57;;
7195;SDS011;3639;51.308;5.624;2022-08-03T03:22:04;2.87;;;2.20;;
7195;SDS011;3639;51.308;5.624;2022-08-03T03:24:32;4.47;;;2.50;;
7195;SDS011;3639;51.308;5.624;2022-08-03T03:27:00;4.03;;;2.37;;
7195;SDS011;3639;51.308;5.624;2022-08-03T03:29:27;3.60;;;2.57;;
7195;SDS011;3639;51.308;5.624;2022-08-03T03:31:53;3.70;;;2.73;;
7195;SDS011;3639;51.308;5.624;2022-08-03T03:34:21;3.17;;;2.60;;
7195;SDS011;3639;51.308;5.624;2022-08-03T03:36:47;3.43;;;2.80;;
7195;SDS011;3639;51.308;5.624;2022-08-03T03:39:13;3.87;;;2.33;;
7195;SDS011;3639;51.308;5.624;2022-08-03T03:41:39;5.43;;;2.07;;
7195;SDS011;3639;51.308;5.624;2022-08-03T03:44:05;4.60;;;2.80;;
7195;SDS011;3639;51.308;5.624;2022-08-03T03:46:31;6.30;;;2.50;;
7195;SDS011;3639;51.308;5.624;2022-08-03T03:48:57;4.03;;;3.07;;
7195;SDS011;3639;51.308;5.624;2022-08-03T03:51:23;4.80;;;2.80;;
7195;SDS011;3639;51.308;5.624;2022-08-03T03:53:58;3.73;;;2.70;;
7195;SDS011;3639;51.308;5.624;2022-08-03T03:56:26;3.17;;;2.60;;
7195;SDS011;3639;51.308;5.624;2022-08-03T03:58:53;4.70;;;3.03;;
7195;SDS011;3639;51.308;5.624;2022-08-03T04:01:20;3.67;;;2.50;;
7195;SDS011;3639;51.308;5.624;2022-08-03T04:03:46;3.90;;;2.50;;
7195;SDS011;3639;51.308;5.624;2022-08-03T04:06:12;3.03;;;2.23;;
7195;SDS011;3639;51.308;5.624;2022-08-03T04:08:58;3.77;;;2.57;;
7195;SDS011;3639;51.308;5.624;2022-08-03T04:11:26;5.90;;;2.77;;
7195;SDS011;3639;51.308;5.624;2022-08-03T04:13:58;4.13;;;3.20;;
7195;SDS011;3639;51.308;5.624;2022-08-03T04:16:32;2.87;;;2.50;;
7195;SDS011;3639;51.308;5.624;2022-08-03T04:19:01;3.17;;;2.40;;
7195;SDS011;3639;51.308;5.624;2022-08-03T04:21:34;5.07;;;2.90;;
7195;SDS011;3639;51.308;5.624;2022-08-03T04:24:05;4.77;;;2.70;;
7195;SDS011;3639;51.308;5.624;2022-08-03T04:26:35;7.10;;;3.40;;
7195;SDS011;3639;51.308;5.624;2022-08-03T04:29:03;3.30;;;2.47;;
7195;SDS011;3639;51.308;5.624;2022-08-03T04:31:31;6.43;;;2.80;;
7195;SDS011;3639;51.308;5.624;2022-08-03T04:33:57;4.50;;;2.40;;
7195;SDS011;3639;51.308;5.624;2022-08-03T04:36:30;4.40;;;2.37;;
7195;SDS011;3639;51.308;5.624;2022-08-03T04:39:07;6.87;;;3.03;;
7195;SDS011;3639;51.308;5.624;2022-08-03T04:41:38;4.70;;;2.53;;
7195;SDS011;3639;51.308;5.624;2022-08-03T04:44:05;3.67;;;2.47;;
7195;SDS011;3639;51.308;5.624;2022-08-03T04:46:36;3.73;;;2.70;;
7195;SDS011;3639;51.308;5.624;2022-08-03T04:49:06;3.77;;;2.60;;
7195;SDS011;3639;51.308;5.624;2022-08-03T04:51:33;4.97;;;2.53;;
7195;SDS011;3639;51.308;5.624;2022-08-03T04:54:03;3.63;;;2.43;;
7195;SDS011;3639;51.308;5.624;2022-08-03T04:56:29;3.83;;;2.93;;
7195;SDS011;3639;51.308;5.624;2022-08-03T04:58:55;3.20;;;2.43;;
7195;SDS011;3639;51.308;5.624;2022-08-03T05:01:21;4.03;;;2.70;;
7195;SDS011;3639;51.308;5.624;2022-08-03T05:03:47;3.93;;;2.77;;
7195;SDS011;3639;51.308;5.624;2022-08-03T05:06:13;5.37;;;2.90;;
7195;SDS011;3639;51.308;5.624;2022-08-03T05:08:39;4.10;;;2.70;;
7195;SDS011;3639;51.308;5.624;2022-08-03T05:11:05;5.10;;;3.00;;
7195;SDS011;3639;51.308;5.624;2022-08-03T05:13:31;3.67;;;2.83;;
7195;SDS011;3639;51.308;5.624;2022-08-03T05:15:57;3.93;;;2.70;;
7195;SDS011;3639;51.308;5.624;2022-08-03T05:18:23;5.13;;;2.93;;
7195;SDS011;3639;51.308;5.624;2022-08-03T05:20:48;3.80;;;2.67;;
7195;SDS011;3639;51.308;5.624;2022-08-03T05:23:14;4.50;;;2.33;;
7195;SDS011;3639;51.308;5.624;2022-08-03T05:25:40;3.57;;;2.80;;
7195;SDS011;3639;51.308;5.624;2022-08-03T05:28:06;5.80;;;2.93;;
7195;SDS011;3639;51.308;5.624;2022-08-03T05:30:32;3.53;;;2.77;;
7195;SDS011;3639;51.308;5.624;2022-08-03T05:32:58;8.60;;;3.20;;
7195;SDS011;3639;51.308;5.624;2022-08-03T05:35:24;4.87;;;2.30;;
7195;SDS011;3639;51.308;5.624;2022-08-03T05:37:52;5.53;;;2.63;;
7195;SDS011;3639;51.308;5.624;2022-08-03T05:40:18;9.17;;;2.77;;
7195;SDS011;3639;51.308;5.624;2022-08-03T05:42:44;5.13;;;2.63;;
7195;SDS011;3639;51.308;5.624;2022-08-03T05:45:10;4.63;;;2.90;;
7195;SDS011;3639;51.308;5.624;2022-08-03T05:47:45;4.40;;;2.47;;
7195;SDS011;3639;51.308;5.624;2022-08-03T05:50:12;5.27;;;2.50;;
7195;SDS011;3639;51.308;5.624;2022-08-03T05:52:39;5.80;;;2.50;;
7195;SDS011;3639;51.308;5.624;2022-08-03T05:55:07;4.10;;;2.37;;
7195;SDS011;3639;51.308;5.624;2022-08-03T05:57:34;4.30;;;2.30;;
7195;SDS011;3639;51.308;5.624;2022-08-03T06:00:06;3.33;;;2.30;;
7195;SDS011;3639;51.308;5.624;2022-08-03T06:02:33;3.60;;;2.10;;
7195;SDS011;3639;51.308;5.624;2022-08-03T06:04:59;2.93;;;2.17;;
7195;SDS011;3639;51.308;5.624;2022-08-03T06:07:26;5.70;;;2.23;;
7195;SDS011;3639;51.308;5.624;2022-08-03T06:09:52;3.97;;;2.10;;
7195;SDS011;3639;51.308;5.624;2022-08-03T06:12:18;3.67;;;1.90;;
7195;SDS011;3639;51.308;5.624;2022-08-03T06:14:47;5.07;;;2.13;;
7195;SDS011;3639;51.308;5.624;2022-08-03T06:17:13;2.38;;;1.60;;
7195;SDS011;3639;51.308;5.624;2022-08-03T06:19:39;3.77;;;2.07;;
7195;SDS011;3639;51.308;5.624;2022-08-03T06:22:05;1.93;;;1.60;;
7195;SDS011;3639;51.308;5.624;2022-08-03T06:24:31;2.83;;;1.70;;
7195;SDS011;3639;51.308;5.624;2022-08-03T06:26:57;4.40;;;1.30;;
7195;SDS011;3639;51.308;5.624;2022-08-03T06:29:23;6.67;;;1.63;;
7195;SDS011;3639;51.308;5.624;2022-08-03T06:31:50;1.87;;;1.63;;
7195;SDS011;3639;51.308;5.624;2022-08-03T06:34:16;2.90;;;1.40;;
7195;SDS011;3639;51.308;5.624;2022-08-03T06:36:43;1.87;;;1.33;;
7195;SDS011;3639;51.308;5.624;2022-08-03T06:39:12;3.30;;;1.50;;
7195;SDS011;3639;51.308;5.624;2022-08-03T06:41:40;1.77;;;1.40;;
7195;SDS011;3639;51.308;5.624;2022-08-03T06:44:07;1.87;;;1.70;;
7195;SDS011;3639;51.308;5.624;2022-08-03T06:46:33;2.13;;;1.40;;
7195;SDS011;3639;51.308;5.624;2022-08-03T06:49:01;3.40;;;1.30;;
7195;SDS011;3639;51.308;5.624;2022-08-03T06:51:29;3.00;;;1.53;;
7195;SDS011;3639;51.308;5.624;2022-08-03T06:53:56;2.17;;;1.10;;
7195;SDS011;3639;51.308;5.624;2022-08-03T06:56:23;2.50;;;1.40;;
7195;SDS011;3639;51.308;5.624;2022-08-03T06:58:49;4.07;;;1.20;;
7195;SDS011;3639;51.308;5.624;2022-08-03T07:01:16;1.70;;;1.00;;
7195;SDS011;3639;51.308;5.624;2022-08-03T07:03:42;2.07;;;1.00;;
7195;SDS011;3639;51.308;5.624;2022-08-03T07:06:10;1.97;;;1.17;;
7195;SDS011;3639;51.308;5.624;2022-08-03T07:08:36;3.73;;;1.17;;
7195;SDS011;3639;51.308;5.624;2022-08-03T07:11:03;2.17;;;1.03;;
7195;SDS011;3639;51.308;5.624;2022-08-03T07:13:29;1.20;;;1.03;;
7195;SDS011;3639;51.308;5.624;2022-08-03T07:15:56;2.40;;;1.20;;
7195;SDS011;3639;51.308;5.624;2022-08-03T07:18:24;2.77;;;1.27;;
7195;SDS011;3639;51.308;5.624;2022-08-03T07:20:50;4.40;;;1.30;;
7195;SDS011;3639;51.308;5.624;2022-08-03T07:23:16;1.83;;;1.40;;
7195;SDS011;3639;51.308;5.624;2022-08-03T07:25:42;2.20;;;1.13;;
7195;SDS011;3639;51.308;5.624;2022-08-03T07:28:08;2.33;;;1.07;;
7195;SDS011;3639;51.308;5.624;2022-08-03T07:30:36;4.03;;;1.65;;
7195;SDS011;3639;51.308;5.624;2022-08-03T07:33:02;2.30;;;1.10;;
7195;SDS011;3639;51.308;5.624;2022-08-03T07:35:29;2.42;;;1.15;;
7195;SDS011;3639;51.308;5.624;2022-08-03T07:37:55;4.55;;;1.60;;
7195;SDS011;3639;51.308;5.624;2022-08-03T07:40:21;2.78;;;1.17;;
7195;SDS011;3639;51.308;5.624;2022-08-03T07:42:48;1.88;;;1.10;;
7195;SDS011;3639;51.308;5.624;2022-08-03T07:45:15;1.02;;;0.88;;
7195;SDS011;3639;51.308;5.624;2022-08-03T07:47:42;1.15;;;1.05;;
7195;SDS011;3639;51.308;5.624;2022-08-03T07:50:09;1.55;;;1.00;;
7195;SDS011;3639;51.308;5.624;2022-08-03T07:52:35;4.05;;;0.95;;
7195;SDS011;3639;51.308;5.624;2022-08-03T07:55:16;1.25;;;0.95;;
7195;SDS011;3639;51.308;5.624;2022-08-03T07:57:43;0.70;;;0.70;;
7195;SDS011;3639;51.308;5.624;2022-08-03T08:00:14;1.65;;;0.98;;
7195;SDS011;3639;51.308;5.624;2022-08-03T08:02:44;4.20;;;1.00;;
7195;SDS011;3639;51.308;5.624;2022-08-03T08:05:11;1.65;;;0.77;;
7195;SDS011;3639;51.308;5.624;2022-08-03T08:07:37;2.85;;;1.08;;
7195;SDS011;3639;51.308;5.624;2022-08-03T08:10:07;2.30;;;1.20;;
7195;SDS011;3639;51.308;5.624;2022-08-03T08:12:37;3.70;;;1.20;;
7195;SDS011;3639;51.308;5.624;2022-08-03T08:15:04;2.03;;;1.00;;
7195;SDS011;3639;51.308;5.624;2022-08-03T08:17:31;1.17;;;1.00;;
7195;SDS011;3639;51.308;5.624;2022-08-03T08:20:06;0.98;;;0.80;;
7195;SDS011;3639;51.308;5.624;2022-08-03T08:22:33;2.95;;;0.90;;
7195;SDS011;3639;51.308;5.624;2022-08-03T08:24:59;1.35;;;0.93;;
7195;SDS011;3639;51.308;5.624;2022-08-03T08:27:24;1.65;;;0.90;;
7195;SDS011;3639;51.308;5.624;2022-08-03T08:29:50;1.65;;;0.80;;
7195;SDS011;3639;51.308;5.624;2022-08-03T08:32:16;1.98;;;0.98;;
7195;SDS011;3639;51.308;5.624;2022-08-03T08:34:42;3.97;;;1.40;;
7195;SDS011;3639;51.308;5.624;2022-08-03T08:37:08;3.40;;;1.00;;
7195;SDS011;3639;51.308;5.624;2022-08-03T08:39:35;1.80;;;0.80;;
7195;SDS011;3639;51.308;5.624;2022-08-03T08:42:01;1.15;;;0.90;;
7195;SDS011;3639;51.308;5.624;2022-08-03T08:44:27;1.60;;;0.82;;
7195;SDS011;3639;51.308;5.624;2022-08-03T08:46:54;3.63;;;1.00;;
7195;SDS011;3639;51.308;5.624;2022-08-03T08:49:22;3.55;;;0.93;;
7195;SDS011;3639;51.308;5.624;2022-08-03T08:51:51;0.80;;;0.80;;
7195;SDS011;3639;51.308;5.624;2022-08-03T08:54:21;2.70;;;0.93;;
7195;SDS011;3639;51.308;5.624;2022-08-03T08:56:49;3.65;;;1.00;;
7195;SDS011;3639;51.308;5.624;2022-08-03T08:59:16;2.85;;;0.80;;
7195;SDS011;3639;51.308;5.624;2022-08-03T09:01:43;1.27;;;0.70;;
7195;SDS011;3639;51.308;5.624;2022-08-03T09:04:08;1.00;;;0.90;;
7195;SDS011;3639;51.308;5.624;2022-08-03T09:06:34;1.75;;;1.00;;
7195;SDS011;3639;51.308;5.624;2022-08-03T09:09:00;1.42;;;0.90;;
7195;SDS011;3639;51.308;5.624;2022-08-03T09:11:26;2.13;;;0.80;;
7195;SDS011;3639;51.308;5.624;2022-08-03T09:13:52;2.88;;;0.82;;
7195;SDS011;3639;51.308;5.624;2022-08-03T09:16:19;0.95;;;0.75;;
7195;SDS011;3639;51.308;5.624;2022-08-03T09:18:47;2.30;;;0.80;;
7195;SDS011;3639;51.308;5.624;2022-08-03T09:21:22;2.95;;;0.80;;
7195;SDS011;3639;51.308;5.624;2022-08-03T09:23:54;2.17;;;0.90;;
7195;SDS011;3639;51.308;5.624;2022-08-03T09:29:09;1.13;;;0.80;;
7195;SDS011;3639;51.308;5.624;2022-08-03T09:31:36;2.58;;;0.90;;
7195;SDS011;3639;51.308;5.624;2022-08-03T09:34:12;2.63;;;1.02;;
7195;SDS011;3639;51.308;5.624;2022-08-03T09:36:48;2.08;;;0.98;;
7195;SDS011;3639;51.308;5.624;2022-08-03T09:39:16;1.70;;;1.25;;
7195;SDS011;3639;51.308;5.624;2022-08-03T09:41:47;1.08;;;0.77;;
7195;SDS011;3639;51.308;5.624;2022-08-03T09:44:34;3.00;;;1.23;;
7195;SDS011;3639;51.308;5.624;2022-08-03T09:47:02;1.13;;;0.80;;
7195;SDS011;3639;51.308;5.624;2022-08-03T09:49:29;0.70;;;0.68;;
7195;SDS011;3639;51.308;5.624;2022-08-03T09:51:55;2.42;;;0.98;;
7195;SDS011;3639;51.308;5.624;2022-08-03T09:54:27;3.05;;;1.20;;
7195;SDS011;3639;51.308;5.624;2022-08-03T09:56:54;2.85;;;0.90;;
7195;SDS011;3639;51.308;5.624;2022-08-03T09:59:27;2.85;;;0.90;;
7195;SDS011;3639;51.308;5.624;2022-08-03T10:01:55;0.80;;;0.80;;
7195;SDS011;3639;51.308;5.624;2022-08-03T10:04:22;2.80;;;0.70;;
7195;SDS011;3639;51.308;5.624;2022-08-03T10:07:01;1.45;;;0.75;;
7195;SDS011;3639;51.308;5.624;2022-08-03T10:09:35;1.23;;;0.75;;
7195;SDS011;3639;51.308;5.624;2022-08-03T10:12:08;1.45;;;0.73;;
7195;SDS011;3639;51.308;5.624;2022-08-03T10:14:36;1.20;;;0.70;;
7195;SDS011;3639;51.308;5.624;2022-08-03T10:17:03;2.05;;;0.80;;
7195;SDS011;3639;51.308;5.624;2022-08-03T10:19:29;2.38;;;0.98;;
7195;SDS011;3639;51.308;5.624;2022-08-03T10:21:56;2.13;;;0.70;;
7195;SDS011;3639;51.308;5.624;2022-08-03T10:24:27;1.15;;;0.82;;
7195;SDS011;3639;51.308;5.624;2022-08-03T10:27:05;1.63;;;1.00;;
7195;SDS011;3639;51.308;5.624;2022-08-03T10:29:35;1.10;;;0.60;;
7195;SDS011;3639;51.308;5.624;2022-08-03T10:32:03;2.47;;;0.73;;
7195;SDS011;3639;51.308;5.624;2022-08-03T10:34:39;0.88;;;0.60;;
7195;SDS011;3639;51.308;5.624;2022-08-03T10:37:08;2.05;;;0.68;;
7195;SDS011;3639;51.308;5.624;2022-08-03T10:39:36;1.85;;;0.80;;
7195;SDS011;3639;51.308;5.624;2022-08-03T10:42:02;0.55;;;0.47;;
7195;SDS011;3639;51.308;5.624;2022-08-03T10:44:31;1.65;;;0.80;;
7195;SDS011;3639;51.308;5.624;2022-08-03T10:47:01;1.48;;;0.52;;
7195;SDS011;3639;51.308;5.624;2022-08-03T10:49:29;1.85;;;0.70;;
7195;SDS011;3639;51.308;5.624;2022-08-03T10:51:56;2.10;;;0.70;;
7195;SDS011;3639;51.308;5.624;2022-08-03T10:54:38;1.88;;;0.75;;
7195;SDS011;3639;51.308;5.624;2022-08-03T11:00:19;1.73;;;0.80;;
7195;SDS011;3639;51.308;5.624;2022-08-03T11:03:02;3.05;;;0.77;;
7195;SDS011;3639;51.308;5.624;2022-08-03T11:05:35;3.28;;;0.65;;
7195;SDS011;3639;51.308;5.624;2022-08-03T11:11:23;2.40;;;1.13;;
7195;SDS011;3639;51.308;5.624;2022-08-03T11:13:58;4.82;;;0.70;;
7195;SDS011;3639;51.308;5.624;2022-08-03T11:16:39;3.50;;;0.90;;
7195;SDS011;3639;51.308;5.624;2022-08-03T11:19:07;2.65;;;0.80;;
7195;SDS011;3639;51.308;5.624;2022-08-03T11:35:13;1.45;;;0.70;;
7195;SDS011;3639;51.308;5.624;2022-08-03T11:40:43;1.40;;;0.70;;
7195;SDS011;3639;51.308;5.624;2022-08-03T11:48:21;2.58;;;0.90;;
7195;SDS011;3639;51.308;5.624;2022-08-03T11:50:51;1.40;;;0.80;;
7195;SDS011;3639;51.308;5.624;2022-08-03T11:53:17;0.82;;;0.60;;
7195;SDS011;3639;51.308;5.624;2022-08-03T11:55:44;0.98;;;0.60;;
7195;SDS011;3639;51.308;5.624;2022-08-03T11:58:19;4.18;;;0.75;;
7195;SDS011;3639;51.308;5.624;2022-08-03T12:00:47;1.88;;;0.80;;
7195;SDS011;3639;51.308;5.624;2022-08-03T12:03:14;1.40;;;0.60;;
7195;SDS011;3639;51.308;5.624;2022-08-03T12:05:46;2.20;;;0.82;;
7195;SDS011;3639;51.308;5.624;2022-08-03T12:08:14;1.23;;;0.70;;
7195;SDS011;3639;51.308;5.624;2022-08-03T12:10:58;1.48;;;0.68;;
7195;SDS011;3639;51.308;5.624;2022-08-03T12:13:40;1.63;;;0.73;;
7195;SDS011;3639;51.308;5.624;2022-08-03T12:16:08;1.73;;;0.90;;
7195;SDS011;3639;51.308;5.624;2022-08-03T12:18:34;1.95;;;0.85;;
7195;SDS011;3639;51.308;5.624;2022-08-03T12:21:08;2.45;;;1.33;;
7195;SDS011;3639;51.308;5.624;2022-08-03T12:23:36;2.75;;;1.00;;
7195;SDS011;3639;51.308;5.624;2022-08-03T12:26:04;2.97;;;0.80;;
7195;SDS011;3639;51.308;5.624;2022-08-03T12:28:31;0.70;;;0.63;;
7195;SDS011;3639;51.308;5.624;2022-08-03T12:31:02;3.92;;;1.70;;
7195;SDS011;3639;51.308;5.624;2022-08-03T12:33:30;1.60;;;0.82;;
7195;SDS011;3639;51.308;5.624;2022-08-03T12:38:34;2.15;;;0.70;;
7195;SDS011;3639;51.308;5.624;2022-08-03T12:41:10;1.67;;;0.80;;
7195;SDS011;3639;51.308;5.624;2022-08-03T12:43:48;2.83;;;1.88;;
7195;SDS011;3639;51.308;5.624;2022-08-03T12:46:15;1.50;;;0.63;;
7195;SDS011;3639;51.308;5.624;2022-08-03T12:51:25;4.07;;;0.80;;
7195;SDS011;3639;51.308;5.624;2022-08-03T12:53:52;1.08;;;0.82;;
7195;SDS011;3639;51.308;5.624;2022-08-03T12:56:19;1.17;;;0.90;;
7195;SDS011;3639;51.308;5.624;2022-08-03T12:58:45;1.38;;;1.27;;
7195;SDS011;3639;51.308;5.624;2022-08-03T13:01:20;1.30;;;0.73;;
7195;SDS011;3639;51.308;5.624;2022-08-03T13:03:51;1.42;;;0.77;;
7195;SDS011;3639;51.308;5.624;2022-08-03T13:06:22;1.15;;;0.95;;
7195;SDS011;3639;51.308;5.624;2022-08-03T13:08:49;1.42;;;0.88;;
7195;SDS011;3639;51.308;5.624;2022-08-03T13:11:26;0.93;;;0.68;;
7195;SDS011;3639;51.308;5.624;2022-08-03T13:13:53;0.63;;;0.60;;
7195;SDS011;3639;51.308;5.624;2022-08-03T13:16:20;0.75;;;0.65;;
7195;SDS011;3639;51.308;5.624;2022-08-03T13:18:47;2.55;;;1.00;;
7195;SDS011;3639;51.308;5.624;2022-08-03T13:21:16;1.38;;;0.63;;
7195;SDS011;3639;51.308;5.624;2022-08-03T13:23:44;1.67;;;1.02;;
7195;SDS011;3639;51.308;5.624;2022-08-03T13:26:11;2.75;;;1.23;;
7195;SDS011;3639;51.308;5.624;2022-08-03T13:28:37;2.83;;;0.85;;
7195;SDS011;3639;51.308;5.624;2022-08-03T13:31:04;2.15;;;0.70;;
7195;SDS011;3639;51.308;5.624;2022-08-03T13:33:31;2.80;;;0.95;;
7195;SDS011;3639;51.308;5.624;2022-08-03T13:35:57;1.00;;;0.88;;
7195;SDS011;3639;51.308;5.624;2022-08-03T13:38:23;1.65;;;1.00;;
7195;SDS011;3639;51.308;5.624;2022-08-03T13:40:52;2.60;;;1.00;;
7195;SDS011;3639;51.308;5.624;2022-08-03T13:43:18;1.30;;;0.60;;
7195;SDS011;3639;51.308;5.624;2022-08-03T13:45:47;1.73;;;0.80;;
7195;SDS011;3639;51.308;5.624;2022-08-03T13:48:13;1.77;;;0.95;;
7195;SDS011;3639;51.308;5.624;2022-08-03T13:50:39;0.95;;;0.70;;
7195;SDS011;3639;51.308;5.624;2022-08-03T13:53:05;2.45;;;0.73;;
7195;SDS011;3639;51.308;5.624;2022-08-03T13:55:33;1.40;;;0.77;;
7195;SDS011;3639;51.308;5.624;2022-08-03T13:57:59;1.38;;;0.75;;
7195;SDS011;3639;51.308;5.624;2022-08-03T14:00:26;2.80;;;0.80;;
7195;SDS011;3639;51.308;5.624;2022-08-03T14:02:58;6.22;;;2.95;;
7195;SDS011;3639;51.308;5.624;2022-08-03T14:05:25;1.23;;;1.00;;
7195;SDS011;3639;51.308;5.624;2022-08-03T14:07:51;2.03;;;0.88;;
7195;SDS011;3639;51.308;5.624;2022-08-03T14:10:18;0.73;;;0.73;;
7195;SDS011;3639;51.308;5.624;2022-08-03T14:12:44;1.27;;;0.70;;
7195;SDS011;3639;51.308;5.624;2022-08-03T14:15:12;1.60;;;0.80;;
7195;SDS011;3639;51.308;5.624;2022-08-03T14:17:40;0.90;;;0.85;;
7195;SDS011;3639;51.308;5.624;2022-08-03T14:20:06;2.25;;;0.82;;
7195;SDS011;3639;51.308;5.624;2022-08-03T14:22:33;2.72;;;0.80;;
7195;SDS011;3639;51.308;5.624;2022-08-03T14:24:59;1.48;;;0.82;;
7195;SDS011;3639;51.308;5.624;2022-08-03T14:27:25;1.60;;;0.95;;
7195;SDS011;3639;51.308;5.624;2022-08-03T14:29:51;2.15;;;0.70;;
7195;SDS011;3639;51.308;5.624;2022-08-03T14:32:17;1.48;;;0.90;;
7195;SDS011;3639;51.308;5.624;2022-08-03T14:34:43;2.35;;;0.90;;
7195;SDS011;3639;51.308;5.624;2022-08-03T14:37:09;1.38;;;1.00;;
7195;SDS011;3639;51.308;5.624;2022-08-03T14:39:35;2.47;;;0.93;;
7195;SDS011;3639;51.308;5.624;2022-08-03T14:42:01;1.80;;;0.80;;
7195;SDS011;3639;51.308;5.624;2022-08-03T14:44:27;1.27;;;0.82;;
7195;SDS011;3639;51.308;5.624;2022-08-03T14:46:53;1.95;;;0.80;;
7195;SDS011;3639;51.308;5.624;2022-08-03T14:49:19;1.52;;;0.80;;
7195;SDS011;3639;51.308;5.624;2022-08-03T14:51:44;2.55;;;0.80;;
7195;SDS011;3639;51.308;5.624;2022-08-03T14:54:10;1.45;;;0.90;;
7195;SDS011;3639;51.308;5.624;2022-08-03T14:56:36;1.40;;;0.85;;
7195;SDS011;3639;51.308;5.624;2022-08-03T14:59:02;1.15;;;0.70;;
7195;SDS011;3639;51.308;5.624;2022-08-03T15:01:28;1.33;;;0.80;;
7195;SDS011;3639;51.308;5.624;2022-08-03T15:03:54;2.75;;;0.93;;
7195;SDS011;3639;51.308;5.624;2022-08-03T15:06:19;1.50;;;0.88;;
7195;SDS011;3639;51.308;5.624;2022-08-03T15:08:45;1.17;;;0.90;;
7195;SDS011;3639;51.308;5.624;2022-08-03T15:11:13;1.25;;;1.13;;
7195;SDS011;3639;51.308;5.624;2022-08-03T15:13:39;1.35;;;0.90;;
7195;SDS011;3639;51.308;5.624;2022-08-03T15:16:05;1.42;;;0.90;;
7195;SDS011;3639;51.308;5.624;2022-08-03T15:18:32;1.08;;;0.80;;
7195;SDS011;3639;51.308;5.624;2022-08-03T15:20:58;2.55;;;1.10;;
7195;SDS011;3639;51.308;5.624;2022-08-03T15:23:24;1.20;;;0.90;;
7195;SDS011;3639;51.308;5.624;2022-08-03T15:25:50;0.90;;;0.70;;
7195;SDS011;3639;51.308;5.624;2022-08-03T15:28:16;2.00;;;0.93;;
7195;SDS011;3639;51.308;5.624;2022-08-03T15:30:42;1.75;;;0.70;;
7195;SDS011;3639;51.308;5.624;2022-08-03T15:33:08;1.45;;;0.90;;
7195;SDS011;3639;51.308;5.624;2022-08-03T15:35:34;0.90;;;0.75;;
7195;SDS011;3639;51.308;5.624;2022-08-03T15:38:00;1.15;;;0.80;;
7195;SDS011;3639;51.308;5.624;2022-08-03T15:40:26;1.15;;;0.75;;
7195;SDS011;3639;51.308;5.624;2022-08-03T15:42:52;1.00;;;0.80;;
7195;SDS011;3639;51.308;5.624;2022-08-03T15:45:18;2.00;;;1.00;;
7195;SDS011;3639;51.308;5.624;2022-08-03T15:47:44;1.15;;;0.60;;
7195;SDS011;3639;51.308;5.624;2022-08-03T15:50:09;1.10;;;0.65;;
7195;SDS011;3639;51.308;5.624;2022-08-03T15:52:36;1.55;;;0.77;;
7195;SDS011;3639;51.308;5.624;2022-08-03T15:55:02;2.03;;;1.10;;
7195;SDS011;3639;51.308;5.624;2022-08-03T15:57:29;2.55;;;1.98;;
7195;SDS011;3639;51.308;5.624;2022-08-03T15:59:54;2.10;;;1.13;;
7195;SDS011;3639;51.308;5.624;2022-08-03T16:02:20;1.42;;;0.85;;
7195;SDS011;3639;51.308;5.624;2022-08-03T16:04:46;1.63;;;0.75;;
7195;SDS011;3639;51.308;5.624;2022-08-03T16:07:12;1.05;;;0.80;;
7195;SDS011;3639;51.308;5.624;2022-08-03T16:09:40;1.70;;;1.00;;
7195;SDS011;3639;51.308;5.624;2022-08-03T16:12:06;1.00;;;0.85;;
7195;SDS011;3639;51.308;5.624;2022-08-03T16:14:33;1.60;;;0.70;;
7195;SDS011;3639;51.308;5.624;2022-08-03T16:16:59;2.70;;;1.20;;